Time;durP1;ratioP1;P1;durP2;ratioP2;P2;SDS_P1;SDS_P2;PMS_P1;PMS_P2;Temp;Humidity;BMP_temperature;BMP_pressure;BME280_temperature;BME280_humidity;BME280_pressure;Samples;Min_cycle;Max_cycle;Signal;HPM_P1;HPM_P2
2021/07/19 00:00:44;;;;;;;3.55;1.00;;;;;10.80;101041.00;;;;5046212;28;20028;-77
2021/07/19 00:03:11;;;;;;;1.88;0.95;;;;;10.80;101034.00;;;;5046912;28;20487;-71
2021/07/19 00:05:38;;;;;;;4.72;1.10;;;;;10.80;101068.00;;;;5045883;28;20109;-71
2021/07/19 00:08:04;;;;;;;4.00;1.23;;;;;10.80;101068.00;;;;5046429;28;20032;-73
2021/07/19 00:10:31;;;;;;;3.15;0.95;;;;;10.80;101048.00;;;;5046480;28;20116;-74
2021/07/19 00:12:58;;;;;;;1.65;0.80;;;;;10.80;101049.00;;;;5046738;28;20032;-75
2021/07/19 00:15:27;;;;;;;5.70;0.93;;;;;10.80;101046.00;;;;5045654;28;20043;-72
2021/07/19 00:17:56;;;;;;;2.97;1.25;;;;;10.80;101040.00;;;;5046053;28;20037;-72
2021/07/19 00:20:23;;;;;;;2.05;0.98;;;;;10.80;101031.00;;;;5046033;28;20052;-74
2021/07/19 00:22:51;;;;;;;4.90;0.85;;;;;10.90;101052.00;;;;5046112;28;20648;-72
2021/07/19 00:25:18;;;;;;;2.05;0.90;;;;;10.90;101028.00;;;;5046422;28;20601;-73
2021/07/19 00:27:46;;;;;;;3.92;0.73;;;;;10.90;101053.00;;;;5054908;28;20044;-72
2021/07/19 00:30:15;;;;;;;7.10;0.95;;;;;10.80;101060.00;;;;5058451;28;20047;-76
2021/07/19 00:32:43;;;;;;;5.03;0.75;;;;;10.90;101049.00;;;;5056677;28;20461;-73
2021/07/19 00:35:10;;;;;;;13.02;1.77;;;;;10.80;101047.00;;;;5050153;28;20025;-72
2021/07/19 00:37:38;;;;;;;1.88;0.90;;;;;10.80;101092.00;;;;5049852;28;20377;-72
2021/07/19 00:40:11;;;;;;;7.50;0.85;;;;;10.80;101077.00;;;;5048703;28;20039;-72
2021/07/19 00:42:40;;;;;;;1.10;0.68;;;;;10.70;101103.00;;;;5050445;28;20072;-72
2021/07/19 00:45:11;;;;;;;5.47;0.80;;;;;10.70;101086.00;;;;5058585;28;20074;-75
2021/07/19 00:47:39;;;;;;;3.78;1.20;;;;;10.90;101078.00;;;;5069720;28;20028;-75
2021/07/19 00:50:07;;;;;;;4.25;1.05;;;;;10.80;101081.00;;;;5069518;28;20509;-72
2021/07/19 00:52:34;;;;;;;5.10;1.00;;;;;10.70;101074.00;;;;5057423;28;20431;-72
2021/07/19 00:55:03;;;;;;;2.38;1.08;;;;;10.70;101087.00;;;;5064032;28;20032;-73
2021/07/19 00:57:32;;;;;;;4.22;1.38;;;;;10.60;101094.00;;;;5057707;28;20029;-74
2021/07/19 01:00:00;;;;;;;4.55;1.15;;;;;10.60;101094.00;;;;5050534;28;20029;-72
2021/07/19 01:02:29;;;;;;;3.67;1.40;;;;;10.60;101077.00;;;;5049200;28;20088;-72
2021/07/19 01:04:56;;;;;;;2.30;1.27;;;;;10.60;101087.00;;;;5049852;28;20035;-73
2021/07/19 01:07:25;;;;;;;2.80;1.13;;;;;10.60;101091.00;;;;5049616;28;20035;-72
2021/07/19 01:09:51;;;;;;;5.95;1.20;;;;;10.60;101077.00;;;;5051179;28;20097;-76
2021/07/19 01:12:19;;;;;;;3.05;1.00;;;;;10.70;101101.00;;;;5054053;28;20032;-72
2021/07/19 01:14:46;;;;;;;2.03;0.68;;;;;10.70;101078.00;;;;5050467;28;20530;-73
2021/07/19 01:17:13;;;;;;;12.88;0.77;;;;;10.90;101094.00;;;;5049918;28;20032;-75
2021/07/19 01:19:43;;;;;;;3.15;1.10;;;;;10.70;101101.00;;;;5049306;28;20027;-75
2021/07/19 01:22:12;;;;;;;5.03;0.93;;;;;10.70;101099.00;;;;5049221;28;20033;-74
2021/07/19 01:25:09;;;;;;;0.93;0.50;;;;;10.80;101090.00;;;;5048626;28;20035;-76
2021/07/19 01:28:03;;;;;;;1.48;0.63;;;;;10.70;101089.00;;;;5049081;28;20060;-72
2021/07/19 01:30:32;;;;;;;3.85;0.70;;;;;10.60;101084.00;;;;5049422;28;20086;-74
2021/07/19 01:33:01;;;;;;;2.10;0.82;;;;;10.70;101101.00;;;;5049122;28;20106;-70
2021/07/19 01:35:33;;;;;;;1.67;0.73;;;;;10.70;101111.00;;;;5049033;28;20480;-72
2021/07/19 01:38:00;;;;;;;;;;;;;10.70;101121.00;;;;5049378;28;20253;-73
2021/07/19 01:40:27;;;;;;;1.45;0.80;;;;;10.60;101076.00;;;;5048528;28;19912;-73
2021/07/19 01:42:57;;;;;;;3.60;0.73;;;;;10.60;101091.00;;;;5049038;28;20036;-72
2021/07/19 01:45:23;;;;;;;3.83;1.05;;;;;10.60;101110.00;;;;5049403;28;20029;-73
2021/07/19 01:47:51;;;;;;;2.35;1.10;;;;;10.60;101099.00;;;;5049444;28;20028;-74
2021/07/19 01:50:18;;;;;;;1.10;0.40;;;;;10.60;101109.00;;;;5048323;28;20057;-75
2021/07/19 01:52:45;;;;;;;2.67;0.60;;;;;10.60;101119.00;;;;5048389;28;20491;-72
2021/07/19 01:55:12;;;;;;;16.20;0.80;;;;;10.70;101113.00;;;;5048918;28;20035;-72
2021/07/19 01:57:39;;;;;;;3.88;1.00;;;;;10.70;101119.00;;;;5049156;28;20033;-75
2021/07/19 02:00:08;;;;;;;0.65;0.50;;;;;10.70;101116.00;;;;5048675;28;20033;-75
2021/07/19 02:02:37;;;;;;;2.70;0.93;;;;;10.60;101124.00;;;;5048402;28;20033;-70
2021/07/19 02:05:12;;;;;;;2.65;0.60;;;;;10.60;101139.00;;;;5048409;28;20036;-73
2021/07/19 02:07:40;;;;;;;2.20;0.65;;;;;10.50;101124.00;;;;5048377;28;20523;-73
2021/07/19 02:10:11;;;;;;;4.72;0.77;;;;;10.50;101136.00;;;;5048619;28;20033;-73
2021/07/19 02:12:41;;;;;;;2.03;0.40;;;;;10.60;101147.00;;;;5048411;28;20535;-75
2021/07/19 02:15:20;;;;;;;1.30;0.52;;;;;10.50;101143.00;;;;5048034;28;20041;-74
2021/07/19 02:17:51;;;;;;;1.38;0.60;;;;;10.50;101152.00;;;;5048246;28;20033;-70
2021/07/19 02:20:20;;;;;;;5.43;0.63;;;;;10.40;101146.00;;;;5048400;28;20056;-74
2021/07/19 02:22:47;;;;;;;4.78;1.05;;;;;10.40;101133.00;;;;5048043;28;20052;-72
2021/07/19 02:25:16;;;;;;;2.92;1.00;;;;;10.40;101136.00;;;;5048314;28;20024;-74
2021/07/19 02:27:45;;;;;;;2.70;0.55;;;;;10.40;101141.00;;;;5047964;28;20033;-72
2021/07/19 02:30:16;;;;;;;4.40;0.47;;;;;10.30;101136.00;;;;5048050;28;20444;-74
2021/07/19 02:32:49;;;;;;;1.80;0.75;;;;;10.40;101125.00;;;;5048385;28;20070;-75
2021/07/19 02:35:17;;;;;;;4.05;0.60;;;;;10.40;101122.00;;;;5048217;28;20033;-72
2021/07/19 02:37:46;;;;;;;2.00;0.75;;;;;10.40;101149.00;;;;5047952;28;20400;-71
2021/07/19 02:40:15;;;;;;;2.33;0.60;;;;;10.40;101138.00;;;;5048560;28;20365;-73
2021/07/19 02:42:44;;;;;;;3.28;0.50;;;;;10.40;101148.00;;;;5047654;28;20487;-73
2021/07/19 02:45:16;;;;;;;5.63;0.77;;;;;10.40;101150.00;;;;5047840;28;20021;-73
2021/07/19 02:47:48;;;;;;;1.30;0.60;;;;;10.40;101144.00;;;;5047759;28;20036;-73
2021/07/19 02:50:19;;;;;;;3.97;0.80;;;;;10.40;101144.00;;;;5047423;28;20057;-76
2021/07/19 02:52:47;;;;;;;6.80;0.93;;;;;10.30;101164.00;;;;5046976;28;20033;-75
2021/07/19 02:55:15;;;;;;;3.05;0.40;;;;;10.30;101139.00;;;;5047520;28;20111;-72
2021/07/19 02:57:41;;;;;;;4.13;0.70;;;;;10.30;101166.00;;;;5047346;28;20079;-73
2021/07/19 03:00:14;;;;;;;1.65;0.60;;;;;10.30;101163.00;;;;5047418;28;20116;-74
2021/07/19 03:02:58;;;;;;;1.92;0.50;;;;;10.30;101144.00;;;;5047112;28;20577;-74
2021/07/19 03:05:32;;;;;;;5.00;0.77;;;;;10.20;101150.00;;;;5048181;28;20033;-74
2021/07/19 03:08:00;;;;;;;7.93;0.63;;;;;10.20;101160.00;;;;5047030;28;20032;-71
2021/07/19 03:10:29;;;;;;;4.65;0.95;;;;;10.20;101164.00;;;;5047646;28;20026;-77
2021/07/19 03:13:03;;;;;;;4.03;0.82;;;;;10.20;101158.00;;;;5047190;28;20384;-74
2021/07/19 03:15:32;;;;;;;2.78;0.77;;;;;10.40;101170.00;;;;5046707;28;20565;-72
2021/07/19 03:18:05;;;;;;;2.63;0.63;;;;;10.40;101157.00;;;;5047538;28;20043;-72
2021/07/19 03:20:36;;;;;;;2.53;0.63;;;;;10.30;101166.00;;;;5047197;28;20025;-74
2021/07/19 03:23:05;;;;;;;2.22;0.52;;;;;10.30;101164.00;;;;5046712;28;20040;-73
2021/07/19 03:25:33;;;;;;;3.90;0.75;;;;;10.30;101157.00;;;;5046692;28;20025;-73
2021/07/19 03:28:00;;;;;;;4.68;0.90;;;;;10.20;101146.00;;;;5046499;28;20410;-74
2021/07/19 03:30:28;;;;;;;2.03;0.55;;;;;10.20;101159.00;;;;5047140;28;20036;-72
2021/07/19 03:32:54;;;;;;;1.98;0.45;;;;;10.20;101148.00;;;;5047132;28;20412;-73
2021/07/19 03:35:26;;;;;;;2.58;0.50;;;;;10.20;101156.00;;;;5046764;28;20031;-71
2021/07/19 03:37:53;;;;;;;4.90;0.80;;;;;10.20;101153.00;;;;5046948;28;20047;-73
2021/07/19 03:40:22;;;;;;;8.40;1.00;;;;;10.20;101157.00;;;;5047426;28;20060;-74
2021/07/19 03:42:57;;;;;;;1.50;0.50;;;;;10.30;101172.00;;;;5046660;28;20033;-73
2021/07/19 03:45:25;;;;;;;2.10;0.50;;;;;10.30;101149.00;;;;5047112;28;20100;-75
2021/07/19 03:47:52;;;;;;;2.67;0.47;;;;;10.20;101152.00;;;;5046696;28;20660;-73
2021/07/19 03:50:19;;;;;;;3.08;0.85;;;;;10.20;101143.00;;;;5046319;28;20061;-74
2021/07/19 03:52:46;;;;;;;3.70;0.70;;;;;10.30;101159.00;;;;5046572;28;20025;-74
2021/07/19 03:55:15;;;;;;;4.47;0.68;;;;;10.20;101149.00;;;;5046670;28;20029;-73
2021/07/19 03:57:42;;;;;;;4.10;0.70;;;;;10.20;101148.00;;;;5047096;28;20028;-71
2021/07/19 04:00:12;;;;;;;4.38;0.80;;;;;10.20;101158.00;;;;5046566;28;20025;-74
2021/07/19 04:02:39;;;;;;;4.80;0.70;;;;;10.20;101172.00;;;;5045876;28;20098;-75
2021/07/19 04:05:09;;;;;;;2.05;0.52;;;;;10.20;101161.00;;;;5046020;28;20396;-74
2021/07/19 04:07:39;;;;;;;3.55;0.60;;;;;10.30;101173.00;;;;5046547;28;20057;-75
2021/07/19 04:10:08;;;;;;;7.57;0.90;;;;;10.20;101178.00;;;;5046498;28;20399;-73
2021/07/19 04:12:35;;;;;;;3.05;0.65;;;;;10.20;101165.00;;;;5046471;28;20029;-72
2021/07/19 04:15:04;;;;;;;2.97;0.55;;;;;10.20;101177.00;;;;5046194;28;20028;-72
2021/07/19 04:17:31;;;;;;;2.83;0.70;;;;;10.20;101187.00;;;;5046436;28;20029;-75
2021/07/19 04:20:10;;;;;;;4.57;0.88;;;;;10.20;101175.00;;;;5046952;28;20032;-72
2021/07/19 04:22:37;;;;;;;2.35;0.60;;;;;10.20;101182.00;;;;5054078;28;20033;-73
2021/07/19 04:25:09;;;;;;;5.13;1.08;;;;;10.20;101193.00;;;;5051415;28;20064;-75
2021/07/19 04:27:39;;;;;;;3.55;0.82;;;;;10.20;101205.00;;;;5044614;28;20029;-74
2021/07/19 04:30:07;;;;;;;1.77;0.43;;;;;10.20;101190.00;;;;5045972;28;20060;-74
2021/07/19 04:32:34;;;;;;;3.90;0.60;;;;;10.20;101165.00;;;;5046128;28;20021;-74
2021/07/19 04:35:00;;;;;;;3.60;0.70;;;;;10.10;101182.00;;;;5045316;28;20051;-72
2021/07/19 04:37:27;;;;;;;5.80;0.85;;;;;10.10;101160.00;;;;5046356;28;20024;-74
2021/07/19 04:39:54;;;;;;;2.97;0.77;;;;;10.10;101180.00;;;;5046059;28;20159;-72
2021/07/19 04:42:20;;;;;;;2.25;0.35;;;;;10.10;101177.00;;;;5045817;28;20033;-73
2021/07/19 04:44:47;;;;;;;3.70;0.90;;;;;10.00;101190.00;;;;5045933;28;20033;-72
2021/07/19 04:47:13;;;;;;;2.38;0.82;;;;;10.10;101177.00;;;;5046313;28;20368;-73
2021/07/19 04:49:41;;;;;;;4.15;0.73;;;;;10.00;101183.00;;;;5046545;28;20112;-72
2021/07/19 04:52:08;;;;;;;9.02;0.50;;;;;10.00;101168.00;;;;5046022;28;20395;-71
2021/07/19 04:54:40;;;;;;;5.97;0.85;;;;;10.00;101175.00;;;;5045966;28;20064;-72
2021/07/19 04:57:12;;;;;;;5.38;0.70;;;;;10.00;101169.00;;;;5045678;28;20175;-74
2021/07/19 04:59:43;;;;;;;2.03;0.70;;;;;10.00;101189.00;;;;5045818;28;20496;-71
2021/07/19 05:02:14;;;;;;;5.43;0.67;;;;;9.90;101188.00;;;;5046032;28;20029;-73
2021/07/19 05:04:42;;;;;;;2.50;0.50;;;;;9.90;101177.00;;;;5046131;28;20067;-72
2021/07/19 05:07:13;;;;;;;5.20;1.05;;;;;9.90;101176.00;;;;5046353;28;20025;-71
2021/07/19 05:09:41;;;;;;;6.03;0.98;;;;;9.90;101160.00;;;;5045725;28;20056;-74
2021/07/19 05:12:11;;;;;;;1.85;0.70;;;;;9.90;101159.00;;;;5046276;28;20037;-71
2021/07/19 05:14:39;;;;;;;3.15;1.10;;;;;9.90;101178.00;;;;5046331;28;20020;-74
2021/07/19 05:17:10;;;;;;;4.32;1.50;;;;;9.90;101173.00;;;;5050219;28;20537;-71
2021/07/19 05:19:44;;;;;;;4.13;1.10;;;;;9.90;101182.00;;;;5049471;28;20048;-74
2021/07/19 05:22:15;;;;;;;2.58;1.13;;;;;9.90;101181.00;;;;5049027;28;20150;-72
2021/07/19 05:24:43;;;;;;;3.70;1.30;;;;;9.90;101193.00;;;;5049415;28;20090;-73
2021/07/19 05:27:12;;;;;;;4.30;1.45;;;;;9.90;101185.00;;;;5049093;28;20136;-73
2021/07/19 05:29:40;;;;;;;5.50;1.55;;;;;9.80;101184.00;;;;5048984;28;20024;-72
2021/07/19 05:32:08;;;;;;;7.88;1.52;;;;;9.80;101177.00;;;;5049328;28;20025;-73
2021/07/19 05:34:35;;;;;;;2.17;1.02;;;;;9.80;101182.00;;;;5049014;28;20036;-73
2021/07/19 05:37:03;;;;;;;4.65;1.38;;;;;9.80;101187.00;;;;5049287;28;20690;-74
2021/07/19 05:39:30;;;;;;;4.70;1.40;;;;;9.70;101185.00;;;;5048502;28;20484;-72
2021/07/19 05:41:56;;;;;;;7.50;1.42;;;;;9.70;101176.00;;;;5049173;28;20086;-73
2021/07/19 05:44:23;;;;;;;3.60;1.38;;;;;9.80;101180.00;;;;5049746;28;20515;-73
2021/07/19 05:46:49;;;;;;;10.48;1.50;;;;;9.80;101182.00;;;;5049217;28;20365;-74
2021/07/19 05:49:17;;;;;;;3.05;1.13;;;;;9.70;101162.00;;;;5048629;28;20098;-70
2021/07/19 05:51:43;;;;;;;3.78;1.10;;;;;9.70;101182.00;;;;5049009;28;20091;-73
2021/07/19 05:54:10;;;;;;;5.50;1.00;;;;;9.70;101172.00;;;;5048785;28;20052;-72
2021/07/19 05:56:37;;;;;;;6.85;1.13;;;;;9.70;101177.00;;;;5048871;28;20034;-72
2021/07/19 05:59:04;;;;;;;3.83;1.10;;;;;9.70;101182.00;;;;5048475;28;20033;-73
2021/07/19 06:01:31;;;;;;;5.47;1.13;;;;;9.60;101182.00;;;;5048501;28;20116;-71
2021/07/19 06:03:59;;;;;;;4.03;1.08;;;;;9.60;101180.00;;;;5048155;28;20033;-74
2021/07/19 06:06:27;;;;;;;6.90;1.25;;;;;9.60;101164.00;;;;5048729;28;20040;-73
2021/07/19 06:08:54;;;;;;;4.80;0.80;;;;;9.60;101150.00;;;;5048892;28;20082;-73
2021/07/19 06:11:20;;;;;;;4.72;1.20;;;;;9.60;101176.00;;;;5049120;28;20299;-73
2021/07/19 06:13:47;;;;;;;7.30;1.10;;;;;9.60;101164.00;;;;5048353;28;20032;-73
2021/07/19 06:16:13;;;;;;;5.40;0.90;;;;;9.60;101176.00;;;;5048462;28;20123;-74
2021/07/19 06:18:40;;;;;;;4.63;1.13;;;;;9.60;101156.00;;;;5048409;28;20546;-71
2021/07/19 06:21:07;;;;;;;8.00;1.33;;;;;9.60;101168.00;;;;5048313;28;20506;-71
2021/07/19 06:23:33;;;;;;;4.57;0.90;;;;;9.60;101154.00;;;;5048049;28;20025;-73
2021/07/19 06:26:00;;;;;;;3.10;0.70;;;;;9.60;101170.00;;;;5048077;28;20079;-73
2021/07/19 06:28:26;;;;;;;1.40;0.70;;;;;9.60;101163.00;;;;5048350;28;20033;-73
2021/07/19 06:30:54;;;;;;;3.75;0.80;;;;;9.60;101150.00;;;;5047684;28;20056;-72
2021/07/19 06:33:21;;;;;;;3.97;0.65;;;;;9.50;101167.00;;;;5048052;28;20108;-71
2021/07/19 06:35:47;;;;;;;1.80;0.65;;;;;9.50;101151.00;;;;5048325;28;20057;-71
2021/07/19 06:38:14;;;;;;;0.75;0.50;;;;;9.50;101171.00;;;;5048003;28;20491;-74
2021/07/19 06:40:41;;;;;;;3.72;0.73;;;;;9.50;101152.00;;;;5048193;28;20036;-70
2021/07/19 06:43:08;;;;;;;3.25;0.63;;;;;9.50;101161.00;;;;5047906;28;20035;-72
2021/07/19 06:45:35;;;;;;;3.30;0.82;;;;;9.50;101171.00;;;;5047832;28;20039;-70
2021/07/19 06:48:02;;;;;;;4.60;1.10;;;;;9.40;101159.00;;;;5047846;28;20425;-72
2021/07/19 06:50:29;;;;;;;4.40;0.68;;;;;9.40;101160.00;;;;5047746;28;20045;-73
2021/07/19 06:52:55;;;;;;;4.25;0.60;;;;;9.40;101154.00;;;;5048141;28;20109;-72
2021/07/19 06:55:22;;;;;;;3.10;0.70;;;;;9.40;101174.00;;;;5047824;28;20025;-71
2021/07/19 06:57:48;;;;;;;3.33;0.88;;;;;9.40;101164.00;;;;5047863;28;20032;-74
2021/07/19 07:00:15;;;;;;;3.17;0.80;;;;;9.40;101165.00;;;;5046132;28;20056;-72
2021/07/19 07:02:41;;;;;;;6.82;0.80;;;;;9.40;101172.00;;;;5047816;28;20036;-71
2021/07/19 07:05:08;;;;;;;2.17;0.70;;;;;9.40;101166.00;;;;5046298;28;20033;-72
2021/07/19 07:07:35;;;;;;;6.95;0.95;;;;;9.40;101150.00;;;;5047360;28;20116;-73
2021/07/19 07:10:03;;;;;;;4.45;0.80;;;;;9.40;101163.00;;;;5047112;28;20112;-72
2021/07/19 07:12:29;;;;;;;2.97;0.68;;;;;9.40;101156.00;;;;5047287;28;20025;-73
2021/07/19 07:14:56;;;;;;;3.85;0.75;;;;;9.40;101168.00;;;;5047570;28;20079;-72
2021/07/19 07:17:23;;;;;;;1.50;0.70;;;;;9.30;101158.00;;;;5046836;28;20044;-72
2021/07/19 07:19:51;;;;;;;6.22;1.38;;;;;9.30;101175.00;;;;5047406;28;20040;-71
2021/07/19 07:22:17;;;;;;;3.00;1.08;;;;;9.30;101164.00;;;;5047234;28;20033;-72
2021/07/19 07:24:44;;;;;;;4.95;1.10;;;;;9.30;101182.00;;;;5047454;28;20021;-72
2021/07/19 07:27:11;;;;;;;6.43;1.13;;;;;9.30;101163.00;;;;5047313;28;20037;-70
2021/07/19 07:29:39;;;;;;;2.78;1.00;;;;;9.30;101151.00;;;;5047029;28;20043;-75
2021/07/19 07:32:07;;;;;;;2.33;0.65;;;;;9.30;101152.00;;;;5047130;28;20041;-71
2021/07/19 07:34:33;;;;;;;7.45;1.00;;;;;9.30;101130.00;;;;5048942;28;20104;-72
2021/07/19 07:37:00;;;;;;;4.85;0.90;;;;;9.30;101147.00;;;;5048806;28;20131;-72
2021/07/19 07:39:26;;;;;;;3.63;1.20;;;;;9.30;101132.00;;;;5046973;28;20065;-73
2021/07/19 07:41:53;;;;;;;7.70;1.08;;;;;9.30;101142.00;;;;5046497;28;20032;-74
2021/07/19 07:44:21;;;;;;;1.95;0.65;;;;;9.30;101154.00;;;;5046763;28;20083;-74
2021/07/19 07:46:49;;;;;;;2.92;0.80;;;;;9.30;101137.00;;;;5046602;28;20567;-71
2021/07/19 07:49:15;;;;;;;9.60;1.38;;;;;9.20;101146.00;;;;5046760;28;20427;-73
2021/07/19 07:51:42;;;;;;;4.63;0.77;;;;;9.20;101128.00;;;;5046276;28;20420;-73
2021/07/19 07:54:09;;;;;;;5.40;1.00;;;;;9.20;101137.00;;;;5046920;28;20040;-72
2021/07/19 07:56:35;;;;;;;3.72;0.80;;;;;9.20;101139.00;;;;5047156;28;20535;-72
2021/07/19 07:59:02;;;;;;;4.38;1.25;;;;;9.20;101114.00;;;;5046835;28;20132;-71
2021/07/19 08:01:28;;;;;;;2.03;0.75;;;;;9.20;101129.00;;;;5046395;28;20036;-71
2021/07/19 08:03:55;;;;;;;3.05;1.13;;;;;9.20;101139.00;;;;5046600;28;20551;-73
2021/07/19 08:06:22;;;;;;;5.18;1.02;;;;;9.20;101121.00;;;;5046199;28;20021;-72
2021/07/19 08:08:48;;;;;;;2.80;0.98;;;;;9.20;101142.00;;;;5046521;28;20055;-74
2021/07/19 08:11:15;;;;;;;4.95;1.13;;;;;9.20;101115.00;;;;5046533;28;20124;-72
2021/07/19 08:13:41;;;;;;;2.15;0.70;;;;;9.20;101146.00;;;;5046505;28;20071;-71
2021/07/19 08:16:08;;;;;;;4.38;1.10;;;;;9.20;101128.00;;;;5046296;28;20040;-72
2021/07/19 08:18:34;;;;;;;3.35;1.02;;;;;9.20;101115.00;;;;5046439;28;20067;-72
2021/07/19 08:21:01;;;;;;;3.08;0.93;;;;;9.20;101121.00;;;;5046764;28;20043;-72
2021/07/19 08:23:28;;;;;;;3.38;0.80;;;;;9.10;101109.00;;;;5046007;28;20352;-74
2021/07/19 08:25:54;;;;;;;6.55;0.73;;;;;9.10;101110.00;;;;5046725;28;20429;-71
2021/07/19 08:28:21;;;;;;;6.43;1.08;;;;;9.10;101120.00;;;;5046606;28;20060;-73
2021/07/19 08:30:47;;;;;;;5.47;1.10;;;;;9.10;101138.00;;;;5046368;28;20491;-74
2021/07/19 08:33:14;;;;;;;3.55;1.02;;;;;9.00;101134.00;;;;5046064;28;20472;-71
2021/07/19 08:35:40;;;;;;;5.93;1.02;;;;;9.00;101140.00;;;;5045883;28;20112;-73
2021/07/19 08:38:07;;;;;;;2.75;1.10;;;;;9.10;101131.00;;;;5045861;28;20601;-72
2021/07/19 08:40:34;;;;;;;6.78;1.20;;;;;9.10;101129.00;;;;5046410;28;20044;-73
2021/07/19 08:43:03;;;;;;;5.75;1.50;;;;;9.10;101129.00;;;;5046079;28;20545;-71
2021/07/19 08:45:30;;;;;;;5.00;1.30;;;;;9.10;101152.00;;;;5046067;28;20032;-72
2021/07/19 08:47:56;;;;;;;2.97;0.80;;;;;9.10;101135.00;;;;5046364;28;20123;-73
2021/07/19 08:50:25;;;;;;;3.20;0.80;;;;;9.10;101140.00;;;;5047744;28;20053;-73
2021/07/19 08:52:54;;;;;;;4.85;1.15;;;;;9.00;101139.00;;;;5050174;28;20033;-71
2021/07/19 08:55:22;;;;;;;13.00;1.40;;;;;9.00;101139.00;;;;5049901;28;20136;-73
2021/07/19 08:57:49;;;;;;;3.88;1.17;;;;;9.00;101156.00;;;;5049958;28;20063;-70
2021/07/19 09:00:18;;;;;;;5.50;1.10;;;;;9.00;101170.00;;;;5050080;28;20033;-72
2021/07/19 09:02:45;;;;;;;7.13;1.83;;;;;9.00;101168.00;;;;5049664;28;20032;-73
2021/07/19 09:05:12;;;;;;;2.47;1.23;;;;;9.00;101168.00;;;;5049404;28;20376;-70
2021/07/19 09:07:39;;;;;;;5.13;1.30;;;;;9.00;101172.00;;;;5049909;28;20043;-71
2021/07/19 09:10:09;;;;;;;2.90;1.00;;;;;9.00;101180.00;;;;5049618;28;20025;-72
2021/07/19 09:12:45;;;;;;;3.55;1.08;;;;;9.00;101173.00;;;;5049380;28;20049;-71
2021/07/19 09:15:14;;;;;;;4.50;1.08;;;;;9.00;101165.00;;;;5049275;28;20028;-73
2021/07/19 09:17:41;;;;;;;6.18;0.90;;;;;9.00;101187.00;;;;5049307;28;20032;-71
2021/07/19 09:20:14;;;;;;;4.32;1.20;;;;;9.00;101191.00;;;;5049649;28;20029;-69
2021/07/19 09:22:41;;;;;;;7.80;1.30;;;;;9.00;101206.00;;;;5049261;28;20044;-75
2021/07/19 09:25:17;;;;;;;7.03;1.23;;;;;9.00;101221.00;;;;5049454;28;20029;-72
2021/07/19 09:28:28;;;;;;;4.90;1.40;;;;;9.00;101219.00;;;;5049463;28;20154;-72
2021/07/19 09:31:03;;;;;;;3.20;0.85;;;;;9.00;101217.00;;;;5026591;28;20121;-73
2021/07/19 09:33:30;;;;;;;7.30;1.35;;;;;9.00;101209.00;;;;5026419;28;20033;-72
2021/07/19 09:36:01;;;;;;;6.03;0.98;;;;;9.00;101228.00;;;;5039671;28;20049;-74
2021/07/19 09:38:30;;;;;;;9.93;5.82;;;;;9.00;101251.00;;;;5048735;28;20458;-73
2021/07/19 09:41:00;;;;;;;4.07;1.10;;;;;8.90;101247.00;;;;5049768;28;20033;-73
2021/07/19 09:43:30;;;;;;;4.68;1.35;;;;;8.90;101270.00;;;;5049162;28;20059;-71
2021/07/19 09:46:04;;;;;;;3.00;0.80;;;;;9.00;101270.00;;;;5049106;28;20033;-72
2021/07/19 09:48:32;;;;;;;8.50;1.20;;;;;9.00;101255.00;;;;5048582;28;20027;-73
2021/07/19 09:50:59;;;;;;;2.80;0.80;;;;;9.00;101262.00;;;;5048399;28;20119;-72
2021/07/19 09:53:38;;;;;;;4.88;1.50;;;;;8.90;101263.00;;;;5048696;28;20590;-73
2021/07/19 09:56:15;;;;;;;7.10;1.65;;;;;9.00;101284.00;;;;5048175;28;20075;-71
2021/07/19 09:58:47;;;;;;;3.92;1.30;;;;;8.90;101285.00;;;;5048240;28;20407;-71
2021/07/19 10:01:38;;;;;;;4.50;1.10;;;;;8.90;101286.00;;;;5047885;28;20037;-74
2021/07/19 10:04:15;;;;;;;5.78;1.55;;;;;8.90;101289.00;;;;5048427;28;20041;-73
2021/07/19 10:06:44;;;;;;;4.80;0.88;;;;;9.00;101285.00;;;;5048840;28;20404;-72
2021/07/19 10:09:12;;;;;;;7.47;1.50;;;;;9.00;101289.00;;;;5048654;28;20036;-73
2021/07/19 10:11:44;;;;;;;5.30;1.00;;;;;8.90;101285.00;;;;5048681;28;20499;-73
2021/07/19 10:14:10;;;;;;;4.20;1.48;;;;;8.90;101296.00;;;;5048422;28;20072;-71
2021/07/19 10:16:37;;;;;;;4.07;1.27;;;;;9.00;101322.00;;;;5048135;28;20037;-71
2021/07/19 10:19:05;;;;;;;6.85;1.20;;;;;9.00;101325.00;;;;5048176;28;20028;-72
2021/07/19 10:21:34;;;;;;;17.75;7.32;;;;;8.90;101283.00;;;;5048243;28;20033;-72
2021/07/19 10:24:09;;;;;;;9.23;2.05;;;;;8.90;101311.00;;;;5047856;28;20029;-71
2021/07/19 10:26:36;;;;;;;10.52;1.42;;;;;8.90;101295.00;;;;5048361;28;20036;-72
2021/07/19 10:29:05;;;;;;;5.03;1.38;;;;;9.00;101298.00;;;;5048283;28;20040;-74
2021/07/19 10:31:33;;;;;;;5.97;2.80;;;;;8.90;101303.00;;;;5048307;28;20063;-75
2021/07/19 10:34:01;;;;;;;5.47;2.83;;;;;9.00;101303.00;;;;5048485;28;20060;-73
2021/07/19 10:36:33;;;;;;;5.07;1.15;;;;;9.00;101295.00;;;;5046354;28;20086;-71
2021/07/19 10:39:04;;;;;;;8.45;2.38;;;;;8.90;101322.00;;;;5047164;28;20506;-72
2021/07/19 10:41:30;;;;;;;5.60;1.08;;;;;8.90;101314.00;;;;5047832;28;20036;-71
2021/07/19 10:44:05;;;;;;;4.70;1.13;;;;;8.90;101327.00;;;;5047923;28;20503;-71
2021/07/19 10:46:32;;;;;;;2.80;0.70;;;;;8.90;101324.00;;;;5047891;28;20033;-72
2021/07/19 10:49:11;;;;;;;6.30;1.95;;;;;8.90;101335.00;;;;5048287;28;20029;-71
2021/07/19 10:51:46;;;;;;;2.22;0.80;;;;;8.90;101317.00;;;;5051027;28;20062;-74
2021/07/19 10:54:17;;;;;;;4.53;1.40;;;;;8.90;101297.00;;;;5047554;28;20787;-74
2021/07/19 10:56:44;;;;;;;5.20;1.15;;;;;8.90;101308.00;;;;5048223;28;20028;-74
2021/07/19 10:59:23;;;;;;;7.88;1.20;;;;;8.90;101285.00;;;;5047788;28;20511;-74
2021/07/19 11:01:54;;;;;;;6.00;1.30;;;;;8.90;101298.00;;;;5047406;28;20028;-74
2021/07/19 11:04:23;;;;;;;4.63;1.23;;;;;8.90;101355.00;;;;5047649;28;20384;-72
2021/07/19 11:07:01;;;;;;;8.38;1.23;;;;;8.90;101371.00;;;;5047531;28;20438;-71
2021/07/19 11:09:39;;;;;;;4.28;1.20;;;;;8.90;101370.00;;;;5047206;28;20033;-74
2021/07/19 11:12:16;;;;;;;4.70;1.50;;;;;8.90;101359.00;;;;5046627;28;20033;-73
2021/07/19 11:14:56;;;;;;;4.47;1.25;;;;;8.80;101377.00;;;;5046999;28;20029;-72
2021/07/19 11:17:28;;;;;;;4.22;1.25;;;;;8.80;101357.00;;;;5046966;28;20028;-71
2021/07/19 11:19:56;;;;;;;;;;;;;8.90;101370.00;;;;5047645;28;20044;-73
2021/07/19 11:22:25;;;;;;;4.38;0.77;;;;;8.90;101385.00;;;;5046795;28;19913;-74
2021/07/19 11:24:54;;;;;;;8.25;1.60;;;;;8.80;101400.00;;;;5046476;28;20411;-71
2021/07/19 11:27:39;;;;;;;5.53;1.08;;;;;8.80;101407.00;;;;5047644;28;20621;-72
2021/07/19 11:30:17;;;;;;;9.25;1.17;;;;;8.90;101398.00;;;;5047294;28;20025;-71
2021/07/19 11:32:44;;;;;;;1.70;0.73;;;;;8.90;101402.00;;;;5046507;28;20411;-71
2021/07/19 11:35:21;;;;;;;3.72;1.10;;;;;8.90;101401.00;;;;5044732;28;20128;-74
2021/07/19 11:38:01;;;;;;;4.95;1.00;;;;;8.90;101385.00;;;;5046861;28;20025;-74
2021/07/19 11:40:31;;;;;;;8.25;1.80;;;;;9.00;101339.00;;;;5046475;28;20084;-74
2021/07/19 11:43:08;;;;;;;8.13;1.52;;;;;9.00;101341.00;;;;5046694;28;20503;-72
2021/07/19 11:45:42;;;;;;;4.03;1.23;;;;;9.10;101340.00;;;;5046932;28;20025;-71
2021/07/19 11:48:09;;;;;;;7.10;1.13;;;;;9.00;101360.00;;;;5046540;28;20056;-75
2021/07/19 11:50:36;;;;;;;5.15;1.10;;;;;9.00;101349.00;;;;5046611;28;20416;-73
2021/07/19 11:53:03;;;;;;;5.38;1.58;;;;;9.00;101360.00;;;;5047059;28;20431;-73
2021/07/19 11:55:30;;;;;;;4.82;1.45;;;;;9.00;101369.00;;;;5046417;28;20140;-74
2021/07/19 11:58:03;;;;;;;3.97;1.10;;;;;9.10;101387.00;;;;5046355;28;20041;-73
2021/07/19 12:00:32;;;;;;;7.10;1.48;;;;;9.10;101355.00;;;;5046578;28;20155;-72
2021/07/19 12:03:00;;;;;;;7.85;1.50;;;;;9.20;101344.00;;;;5046321;28;20035;-72
2021/07/19 12:05:27;;;;;;;9.63;1.63;;;;;9.20;101374.00;;;;5046392;28;20075;-71
2021/07/19 12:08:08;;;;;;;5.60;1.23;;;;;9.30;101361.00;;;;5046389;28;20088;-70
2021/07/19 12:10:40;;;;;;;6.97;1.77;;;;;9.50;101373.00;;;;5045610;28;20044;-70
2021/07/19 12:13:12;;;;;;;4.25;1.38;;;;;9.50;101364.00;;;;5046425;28;20041;-73
2021/07/19 12:15:59;;;;;;;9.50;2.38;;;;;9.60;101387.00;;;;5046037;28;20092;-73
2021/07/19 12:18:31;;;;;;;11.63;2.90;;;;;9.70;101389.00;;;;5046127;28;20025;-72
2021/07/19 12:21:10;;;;;;;2.83;1.17;;;;;9.70;101408.00;;;;5046557;28;20435;-71
2021/07/19 12:23:42;;;;;;;5.65;1.33;;;;;9.70;101393.00;;;;5046480;28;20033;-74